createdAt,value
2022-12-26T00:00:57.768Z,2.95
2022-12-26T00:03:24.730Z,3.20
2022-12-26T00:05:51.613Z,2.85
2022-12-26T00:08:18.606Z,2.85
2022-12-26T00:10:45.421Z,3.88
2022-12-26T00:13:39.353Z,3.15
2022-12-26T00:15:58.997Z,3.13
2022-12-26T00:18:25.783Z,2.83
2022-12-26T00:20:52.560Z,3.08
2022-12-26T00:23:19.317Z,3.20
2022-12-26T00:25:46.067Z,3.20
2022-12-26T00:28:12.807Z,3.33
2022-12-26T00:30:39.651Z,3.15
2022-12-26T00:33:06.481Z,2.80
2022-12-26T00:35:33.346Z,2.83
2022-12-26T00:38:00.149Z,3.17
2022-12-26T00:40:26.958Z,3.25
2022-12-26T00:42:53.773Z,2.88
2022-12-26T00:45:20.631Z,2.75
2022-12-26T00:47:47.395Z,3.13
2022-12-26T00:50:15.833Z,2.72
2022-12-26T00:52:43.082Z,2.63
2022-12-26T00:55:10.304Z,2.58
2022-12-26T00:57:37.068Z,2.92
2022-12-26T01:00:04.830Z,3.17
2022-12-26T01:02:40.751Z,3.38
2022-12-26T01:05:09.167Z,3.10
2022-12-26T01:08:20.057Z,3.05
2022-12-26T01:10:23.762Z,2.90
2022-12-26T01:12:50.511Z,2.60
2022-12-26T01:15:17.439Z,2.88
2022-12-26T01:17:44.297Z,2.83
2022-12-26T01:20:11.434Z,2.67
2022-12-26T01:22:38.295Z,2.40
2022-12-26T01:25:05.591Z,2.92
2022-12-26T01:27:32.335Z,2.83
2022-12-26T01:29:59.093Z,2.90
2022-12-26T01:32:25.828Z,3.10
2022-12-26T01:34:55.437Z,3.25
2022-12-26T01:37:23.547Z,2.78
2022-12-26T01:39:51.235Z,2.70
2022-12-26T01:42:20.822Z,2.47
2022-12-26T01:45:02.751Z,2.42
2022-12-26T01:47:46.911Z,3.00
2022-12-26T01:50:23.543Z,2.70
2022-12-26T01:52:50.309Z,2.67
2022-12-26T01:55:17.961Z,2.85
2022-12-26T01:57:47.580Z,2.72
2022-12-26T02:00:14.654Z,2.30
2022-12-26T02:03:00.381Z,2.50
2022-12-26T02:05:33.960Z,2.70
2022-12-26T02:08:21.884Z,2.88
2022-12-26T02:11:09.426Z,2.80
2022-12-26T02:13:37.029Z,2.65
2022-12-26T02:16:04.994Z,2.72
2022-12-26T02:18:31.869Z,2.58
2022-12-26T02:20:58.597Z,2.97
2022-12-26T02:23:30.988Z,3.10
2022-12-26T02:26:16.488Z,2.80
2022-12-26T02:29:06.555Z,2.40
2022-12-26T02:32:11.221Z,3.00
2022-12-26T02:34:52.014Z,2.33
2022-12-26T02:37:41.395Z,2.67
2022-12-26T02:40:49.585Z,2.50
2022-12-26T02:43:24.057Z,2.58
2022-12-26T02:46:23.290Z,2.80
2022-12-26T02:48:58.941Z,3.10
2022-12-26T02:51:47.491Z,2.60
2022-12-26T02:54:45.026Z,2.40
2022-12-26T02:57:32.441Z,2.42
2022-12-26T03:00:30.347Z,2.50
2022-12-26T03:03:19.753Z,2.60
2022-12-26T03:06:11.278Z,2.53
2022-12-26T03:09:05.240Z,2.50
2022-12-26T03:14:22.617Z,2.28
2022-12-26T03:17:09.813Z,2.40
2022-12-26T03:19:37.335Z,2.70
2022-12-26T03:22:24.051Z,2.38
2022-12-26T03:25:09.375Z,3.05
2022-12-26T03:27:36.115Z,2.50
2022-12-26T03:30:21.551Z,2.60
2022-12-26T03:32:48.275Z,2.88
2022-12-26T03:35:16.228Z,2.70
2022-12-26T03:38:23.099Z,2.50
2022-12-26T03:41:14.788Z,3.08
2022-12-26T03:44:30.342Z,2.40
2022-12-26T03:47:38.633Z,2.15
2022-12-26T03:50:29.709Z,2.20
2022-12-26T03:53:28.238Z,2.30
2022-12-26T03:56:32.679Z,2.65
2022-12-26T03:59:26.307Z,2.80
2022-12-26T04:02:11.740Z,3.05
2022-12-26T04:04:58.699Z,2.58
2022-12-26T04:07:56.282Z,2.50
2022-12-26T04:10:47.858Z,2.47
2022-12-26T04:13:37.789Z,2.72
2022-12-26T04:16:35.322Z,2.42
2022-12-26T04:19:32.477Z,2.47
2022-12-26T04:22:39.439Z,2.35
2022-12-26T04:25:50.155Z,2.50
2022-12-26T04:28:40.388Z,3.03
2022-12-26T04:31:42.136Z,2.65
2022-12-26T04:34:34.383Z,2.00
2022-12-26T04:37:21.507Z,2.70
2022-12-26T04:40:08.671Z,2.55
2022-12-26T04:42:53.955Z,2.63
2022-12-26T04:45:21.067Z,2.33
2022-12-26T04:48:07.764Z,2.53
2022-12-26T04:50:34.701Z,2.80
2022-12-26T04:53:01.551Z,3.28
2022-12-26T04:55:30.063Z,2.92
2022-12-26T04:57:57.008Z,2.13
2022-12-26T05:00:28.106Z,3.00
2022-12-26T05:03:18.759Z,2.65
2022-12-26T05:06:06.422Z,2.70
2022-12-26T05:08:53.112Z,2.38
2022-12-26T05:11:19.898Z,2.67
2022-12-26T05:13:46.675Z,2.35
2022-12-26T05:16:32.096Z,2.40
2022-12-26T05:19:17.289Z,3.00
2022-12-26T05:22:02.807Z,2.50
2022-12-26T05:24:53.624Z,2.55
2022-12-26T05:27:39.258Z,2.58
2022-12-26T05:30:06.886Z,2.42
2022-12-26T05:32:52.427Z,2.80
2022-12-26T05:35:19.270Z,2.10
2022-12-26T05:37:47.296Z,2.58
2022-12-26T05:40:14.123Z,2.72
2022-12-26T05:42:40.926Z,2.50
2022-12-26T05:45:08.296Z,2.40
2022-12-26T05:47:35.056Z,2.70
2022-12-26T05:50:02.072Z,2.83
2022-12-26T05:52:28.873Z,2.30
2022-12-26T05:54:56.220Z,2.53
2022-12-26T05:57:22.972Z,2.58
2022-12-26T05:59:49.729Z,2.40
2022-12-26T06:02:16.649Z,2.70
2022-12-26T06:04:43.523Z,2.60
2022-12-26T06:07:10.275Z,3.25
2022-12-26T06:09:37.098Z,2.50
2022-12-26T06:12:03.899Z,2.40
2022-12-26T06:14:30.611Z,2.17
2022-12-26T06:16:57.349Z,2.47
2022-12-26T06:19:24.101Z,2.30
2022-12-26T06:21:50.865Z,2.58
2022-12-26T06:24:19.871Z,2.08
2022-12-26T06:26:46.795Z,2.58
2022-12-26T06:29:13.529Z,2.20
2022-12-26T06:31:40.325Z,2.50
2022-12-26T06:34:07.846Z,2.15
2022-12-26T06:36:35.096Z,2.08
2022-12-26T06:39:02.307Z,2.10
2022-12-26T06:41:30.070Z,2.58
2022-12-26T06:43:57.164Z,2.88
2022-12-26T06:46:25.019Z,2.53
2022-12-26T06:48:52.258Z,3.05
2022-12-26T06:51:26.305Z,2.33
2022-12-26T06:53:53.480Z,2.90
2022-12-26T06:56:24.732Z,2.33
2022-12-26T06:58:55.628Z,2.33
2022-12-26T07:01:22.888Z,2.50
2022-12-26T07:03:52.440Z,2.33
2022-12-26T07:06:23.247Z,2.53
2022-12-26T07:08:50.438Z,2.75
2022-12-26T07:11:18.461Z,2.30
2022-12-26T07:13:45.217Z,2.47
2022-12-26T07:16:13.057Z,2.53
2022-12-26T07:18:40.819Z,2.35
2022-12-26T07:21:08.174Z,2.80
2022-12-26T07:23:35.757Z,2.53
2022-12-26T07:26:02.715Z,2.78
2022-12-26T07:28:29.572Z,2.83
2022-12-26T07:31:59.231Z,2.40
2022-12-26T07:34:31.333Z,2.50
2022-12-26T07:36:59.980Z,2.42
2022-12-26T07:39:26.760Z,2.60
2022-12-26T07:41:59.696Z,2.55
2022-12-26T07:44:30.764Z,3.20
2022-12-26T07:46:58.046Z,2.33
2022-12-26T07:49:24.989Z,2.25
2022-12-26T07:51:51.962Z,2.65
2022-12-26T07:54:18.993Z,2.45
2022-12-26T07:56:45.759Z,2.50
2022-12-26T07:59:16.585Z,2.17
2022-12-26T08:01:43.668Z,2.90
2022-12-26T08:04:11.562Z,2.78
2022-12-26T08:06:38.370Z,2.55
2022-12-26T08:09:05.357Z,2.53
2022-12-26T08:11:34.270Z,2.70
2022-12-26T08:14:02.528Z,2.95
2022-12-26T08:16:31.052Z,2.53
2022-12-26T08:18:57.973Z,2.42
2022-12-26T08:21:24.717Z,2.60
2022-12-26T08:23:51.563Z,5.28
2022-12-26T08:26:22.537Z,10.23
2022-12-26T08:28:50.598Z,8.55
2022-12-26T08:31:17.694Z,7.88
2022-12-26T08:33:44.804Z,3.90
2022-12-26T08:36:12.950Z,3.25
2022-12-26T08:38:40.301Z,3.03
2022-12-26T08:41:07.201Z,3.45
2022-12-26T08:44:09.902Z,3.08
2022-12-26T08:46:21.518Z,3.05
2022-12-26T08:48:48.595Z,2.70
2022-12-26T08:51:19.770Z,2.47
2022-12-26T08:53:47.053Z,3.10
2022-12-26T08:56:15.211Z,3.03
2022-12-26T08:58:42.183Z,2.88
2022-12-26T09:01:11.993Z,2.65
2022-12-26T09:03:39.338Z,3.20
2022-12-26T09:06:06.832Z,3.58
2022-12-26T09:08:36.818Z,3.25
2022-12-26T09:11:14.551Z,3.30
2022-12-26T09:13:41.672Z,5.65
2022-12-26T09:16:12.727Z,6.28
2022-12-26T09:18:39.902Z,5.82
2022-12-26T09:21:08.444Z,6.13
2022-12-26T09:23:35.677Z,6.20
2022-12-26T09:26:09.485Z,5.97
2022-12-26T09:28:36.558Z,7.15
2022-12-26T09:31:05.135Z,6.80
2022-12-26T09:33:33.355Z,6.60
2022-12-26T09:36:04.568Z,6.47
2022-12-26T09:38:33.194Z,7.32
2022-12-26T09:41:04.445Z,7.47
2022-12-26T09:43:51.061Z,6.38
2022-12-26T09:46:36.677Z,7.72
2022-12-26T09:49:13.661Z,7.10
2022-12-26T09:51:41.271Z,7.45
2022-12-26T09:54:09.647Z,7.30
2022-12-26T09:57:01.692Z,6.60
2022-12-26T09:59:26.118Z,7.15
2022-12-26T10:01:53.443Z,5.53
2022-12-26T10:04:29.899Z,5.10
2022-12-26T10:07:02.950Z,5.18
2022-12-26T10:10:04.106Z,5.85
2022-12-26T10:13:07.631Z,6.35
2022-12-26T10:15:40.449Z,4.88
2022-12-26T10:18:16.393Z,5.25
2022-12-26T10:21:06.032Z,4.72
2022-12-26T10:23:35.488Z,4.82
2022-12-26T10:26:18.256Z,4.05
2022-12-26T10:28:59.431Z,4.00
2022-12-26T10:31:51.898Z,3.65
2022-12-26T10:34:26.205Z,5.03
2022-12-26T10:37:02.207Z,4.07
2022-12-26T10:39:30.782Z,3.35
2022-12-26T10:42:00.546Z,6.32
2022-12-26T10:44:29.945Z,4.35
2022-12-26T10:47:15.268Z,2.35
2022-12-26T10:49:42.982Z,3.47
2022-12-26T10:52:09.880Z,3.00
2022-12-26T10:54:36.662Z,3.22
2022-12-26T10:57:03.673Z,4.05
2022-12-26T10:59:42.510Z,5.53
2022-12-26T11:02:23.410Z,4.13
2022-12-26T11:07:54.630Z,17.42
2022-12-26T11:10:24.204Z,5.07
2022-12-26T11:13:01.707Z,4.72
2022-12-26T11:15:32.842Z,3.53
2022-12-26T11:18:19.883Z,2.13
2022-12-26T11:20:47.253Z,2.40
2022-12-26T11:23:28.926Z,2.75
2022-12-26T11:25:57.197Z,2.22
2022-12-26T11:28:42.119Z,2.75
2022-12-26T11:31:25.051Z,2.13
2022-12-26T11:33:51.993Z,2.40
2022-12-26T11:36:20.865Z,2.83
2022-12-26T11:38:56.375Z,2.63
2022-12-26T11:41:42.501Z,3.95
2022-12-26T11:44:14.288Z,2.63
2022-12-26T11:46:49.669Z,3.13
2022-12-26T11:49:29.948Z,2.22
2022-12-26T11:51:59.625Z,2.58
2022-12-26T11:54:37.338Z,2.65
2022-12-26T11:57:23.072Z,2.05
2022-12-26T11:59:50.427Z,2.30
2022-12-26T12:02:28.766Z,1.95
2022-12-26T12:04:59.665Z,2.03
2022-12-26T12:07:37.070Z,2.50
2022-12-26T12:10:10.961Z,2.22
2022-12-26T12:12:52.131Z,2.25
2022-12-26T12:15:57.652Z,1.65
2022-12-26T12:18:40.749Z,1.90
2022-12-26T12:21:43.236Z,2.13
2022-12-26T12:24:29.405Z,2.10
2022-12-26T12:27:22.044Z,2.25
2022-12-26T12:30:08.473Z,1.75
2022-12-26T12:33:09.349Z,1.88
2022-12-26T12:35:57.731Z,2.42
2022-12-26T12:38:29.994Z,2.08
2022-12-26T12:40:59.473Z,1.80
2022-12-26T12:43:29.390Z,1.73
2022-12-26T12:46:31.053Z,1.98
2022-12-26T12:49:03.573Z,1.50
2022-12-26T12:51:59.364Z,1.80
2022-12-26T12:55:05.828Z,1.70
2022-12-26T12:57:49.986Z,1.70
2022-12-26T13:00:24.743Z,1.67
2022-12-26T13:03:11.710Z,1.30
2022-12-26T13:06:13.317Z,1.08
2022-12-26T13:08:48.587Z,1.55
2022-12-26T13:11:29.143Z,1.27
2022-12-26T13:14:15.884Z,1.60
2022-12-26T13:16:48.655Z,1.13
2022-12-26T13:19:20.955Z,1.17
2022-12-26T13:21:48.092Z,1.50
2022-12-26T13:24:41.949Z,1.30
2022-12-26T13:27:14.591Z,0.93
2022-12-26T13:29:46.310Z,1.40
2022-12-26T13:32:23.595Z,1.00
2022-12-26T13:34:51.951Z,0.80
2022-12-26T13:37:37.639Z,1.02
2022-12-26T13:40:13.192Z,1.00
2022-12-26T13:43:17.877Z,1.10
2022-12-26T13:45:48.738Z,1.10
2022-12-26T13:48:15.527Z,1.17
2022-12-26T13:51:01.909Z,1.30
2022-12-26T13:53:32.749Z,1.20
2022-12-26T13:56:09.149Z,1.10
2022-12-26T13:59:06.704Z,1.17
2022-12-26T14:01:55.753Z,1.58
2022-12-26T14:04:50.639Z,1.00
2022-12-26T14:08:02.630Z,0.93
2022-12-26T14:10:37.149Z,0.85
2022-12-26T14:13:35.203Z,1.08
2022-12-26T14:16:16.185Z,0.90
2022-12-26T14:19:15.336Z,1.02
2022-12-26T14:22:12.384Z,1.13
2022-12-26T14:25:17.014Z,0.93
2022-12-26T14:27:55.380Z,1.40
2022-12-26T14:30:24.410Z,0.95
2022-12-26T14:33:06.755Z,1.00
2022-12-26T14:35:33.635Z,0.90
2022-12-26T14:38:34.196Z,0.75
2022-12-26T14:41:06.538Z,0.73
2022-12-26T14:43:40.368Z,1.00
2022-12-26T14:46:32.159Z,0.98
2022-12-26T14:49:00.232Z,0.85
2022-12-26T14:51:29.349Z,0.93
2022-12-26T14:54:27.564Z,1.30
2022-12-26T14:56:54.551Z,1.48
2022-12-26T14:59:32.060Z,1.25
2022-12-26T15:02:09.836Z,1.33
2022-12-26T15:05:04.083Z,1.20
2022-12-26T15:08:04.755Z,1.10
2022-12-26T15:10:51.041Z,1.30
2022-12-26T15:13:45.385Z,1.50
2022-12-26T15:16:34.088Z,1.20
2022-12-26T15:19:34.716Z,1.50
2022-12-26T15:22:34.476Z,1.42
2022-12-26T15:25:21.380Z,1.73
2022-12-26T15:28:15.397Z,2.30
2022-12-26T15:30:45.678Z,1.92
2022-12-26T15:33:27.111Z,1.45
2022-12-26T15:36:07.089Z,1.42
2022-12-26T15:38:42.037Z,1.30
2022-12-26T15:41:40.278Z,1.30
2022-12-26T15:44:22.239Z,1.40
2022-12-26T15:46:55.809Z,1.40
2022-12-26T15:49:41.918Z,1.30
2022-12-26T15:52:27.715Z,1.40
2022-12-26T15:55:20.890Z,1.10
2022-12-26T15:57:58.487Z,1.33
2022-12-26T16:00:26.807Z,1.50
2022-12-26T16:03:06.562Z,1.40
2022-12-26T16:05:53.141Z,1.42
2022-12-26T16:08:41.170Z,1.30
2022-12-26T16:11:18.127Z,1.75
2022-12-26T16:14:01.424Z,1.60
2022-12-26T16:16:37.121Z,1.30
2022-12-26T16:19:23.947Z,1.30
2022-12-26T16:22:14.483Z,1.40
2022-12-26T16:24:41.521Z,1.55
2022-12-26T16:27:08.817Z,1.60
2022-12-26T16:29:44.391Z,1.33
2022-12-26T16:32:14.124Z,1.60
2022-12-26T16:34:40.884Z,1.80
2022-12-26T16:37:08.491Z,1.55
2022-12-26T16:39:35.277Z,1.92
2022-12-26T16:42:04.879Z,1.70
2022-12-26T16:44:36.187Z,2.08
2022-12-26T16:47:12.964Z,1.85
2022-12-26T16:49:41.637Z,1.83
2022-12-26T16:52:46.226Z,3.67
2022-12-26T16:55:37.009Z,3.33
2022-12-26T16:58:12.295Z,2.53
2022-12-26T17:00:39.069Z,2.20
2022-12-26T17:03:10.805Z,1.85
2022-12-26T17:09:44.767Z,1.77
2022-12-26T17:12:26.287Z,1.85
2022-12-26T17:14:53.572Z,1.90
2022-12-26T17:17:23.417Z,1.52
2022-12-26T17:19:54.162Z,1.55
2022-12-26T17:22:30.910Z,1.70
2022-12-26T17:25:21.874Z,1.58
2022-12-26T17:28:09.755Z,1.70
2022-12-26T17:30:37.684Z,1.60
2022-12-26T17:33:17.798Z,1.58
2022-12-26T17:36:44.703Z,1.52
2022-12-26T17:38:34.829Z,1.52
2022-12-26T17:41:03.238Z,1.75
2022-12-26T17:43:37.503Z,1.60
2022-12-26T17:46:05.254Z,1.50
2022-12-26T17:48:32.111Z,1.25
2022-12-26T17:51:00.448Z,1.20
2022-12-26T17:53:27.440Z,1.50
2022-12-26T17:55:54.966Z,1.60
2022-12-26T17:58:21.985Z,1.23
2022-12-26T18:00:48.984Z,1.40
2022-12-26T18:03:15.945Z,1.50
2022-12-26T18:05:42.846Z,1.50
2022-12-26T18:08:26.790Z,1.75
2022-12-26T18:10:53.651Z,1.10
2022-12-26T18:13:20.433Z,1.20
2022-12-26T18:15:47.214Z,1.40
2022-12-26T18:18:32.396Z,1.77
2022-12-26T18:20:59.286Z,1.45
2022-12-26T18:23:26.044Z,1.33
2022-12-26T18:25:59.950Z,1.45
2022-12-26T18:28:27.062Z,1.50
2022-12-26T18:30:55.095Z,2.15
2022-12-26T18:33:21.848Z,2.17
2022-12-26T18:35:48.615Z,2.40
2022-12-26T18:38:19.176Z,3.20
2022-12-26T18:40:50.685Z,1.92
2022-12-26T18:43:17.467Z,1.98
2022-12-26T18:45:44.351Z,2.10
2022-12-26T18:48:16.365Z,2.10
2022-12-26T18:50:43.273Z,1.85
2022-12-26T18:53:10.398Z,1.70
2022-12-26T18:55:37.186Z,2.13
2022-12-26T18:58:04.018Z,6.13
2022-12-26T19:00:31.054Z,3.88
2022-12-26T19:02:57.790Z,2.20
2022-12-26T19:05:30.868Z,2.50
2022-12-26T19:07:58.096Z,2.03
2022-12-26T19:10:27.776Z,2.90
2022-12-26T19:12:57.390Z,2.10
2022-12-26T19:15:28.071Z,1.77
2022-12-26T19:17:54.822Z,1.70
2022-12-26T19:20:22.962Z,1.20
2022-12-26T19:22:50.588Z,1.63
2022-12-26T19:25:17.773Z,3.00
2022-12-26T19:27:44.918Z,20.73
2022-12-26T19:30:12.316Z,6.90
2022-12-26T19:32:39.259Z,9.75
2022-12-26T19:35:06.753Z,16.45
2022-12-26T19:37:33.578Z,15.77
2022-12-26T19:40:00.401Z,12.13
2022-12-26T19:42:27.559Z,8.20
2022-12-26T19:44:54.356Z,4.38
2022-12-26T19:47:21.266Z,2.92
2022-12-26T19:49:48.023Z,1.90
2022-12-26T19:52:14.799Z,2.47
2022-12-26T19:54:41.700Z,2.00
2022-12-26T19:57:08.489Z,1.80
2022-12-26T19:59:35.346Z,1.80
2022-12-26T20:02:02.841Z,1.95
2022-12-26T20:04:29.764Z,1.90
2022-12-26T20:06:59.333Z,1.23
2022-12-26T20:09:26.223Z,0.85
2022-12-26T20:11:55.840Z,1.20
2022-12-26T20:14:23.949Z,1.67
2022-12-26T20:17:09.659Z,1.40
2022-12-26T20:19:36.826Z,1.48
2022-12-26T20:22:04.131Z,1.42
2022-12-26T20:24:30.961Z,1.50
2022-12-26T20:26:57.764Z,1.10
2022-12-26T20:29:24.556Z,1.30
2022-12-26T20:31:55.085Z,1.25
2022-12-26T20:34:22.039Z,1.63
2022-12-26T20:36:48.880Z,1.77
2022-12-26T20:39:16.998Z,2.15
2022-12-26T20:41:43.831Z,1.75
2022-12-26T20:44:15.218Z,1.77
2022-12-26T20:46:42.143Z,1.75
2022-12-26T20:49:09.888Z,1.70
2022-12-26T20:51:38.458Z,2.20
2022-12-26T20:54:08.864Z,2.42
2022-12-26T20:56:36.254Z,3.75
2022-12-26T20:59:03.388Z,3.30
2022-12-26T21:01:30.336Z,2.10
2022-12-26T21:03:57.465Z,1.80
2022-12-26T21:06:25.574Z,2.38
2022-12-26T21:08:52.943Z,2.15
2022-12-26T21:11:24.871Z,1.98
2022-12-26T21:13:52.392Z,2.15
2022-12-26T21:16:28.182Z,2.10
2022-12-26T21:18:55.150Z,1.80
2022-12-26T21:21:24.368Z,2.10
2022-12-26T21:23:55.683Z,2.13
2022-12-26T21:26:22.627Z,2.78
2022-12-26T21:28:49.386Z,2.40
2022-12-26T21:31:16.183Z,2.72
2022-12-26T21:33:44.901Z,2.78
2022-12-26T21:36:12.532Z,2.65
2022-12-26T21:38:39.349Z,2.63
2022-12-26T21:41:10.282Z,2.50
2022-12-26T21:44:30.140Z,2.55
2022-12-26T21:46:56.954Z,2.58
2022-12-26T21:49:24.415Z,2.60
2022-12-26T21:51:51.286Z,2.90
2022-12-26T21:54:36.947Z,3.20
2022-12-26T21:57:04.107Z,2.95
2022-12-26T21:59:49.605Z,2.88
2022-12-26T22:02:54.952Z,3.25
2022-12-26T22:05:24.933Z,3.13
2022-12-26T22:07:55.954Z,3.13
2022-12-26T22:10:42.269Z,2.83
2022-12-26T22:13:09.111Z,3.33
2022-12-26T22:15:59.138Z,3.30
2022-12-26T22:18:26.151Z,3.88
2022-12-26T22:20:52.948Z,3.63
2022-12-26T22:23:19.875Z,4.93
2022-12-26T22:25:54.327Z,5.25
2022-12-26T22:28:23.526Z,4.47
2022-12-26T22:30:50.875Z,6.38
2022-12-26T22:33:18.401Z,5.35
2022-12-26T22:35:46.265Z,3.67
2022-12-26T22:38:13.401Z,4.07
2022-12-26T22:40:40.183Z,3.17
2022-12-26T22:43:07.032Z,3.25
2022-12-26T22:45:33.846Z,3.10
2022-12-26T22:48:00.624Z,3.45
2022-12-26T22:50:27.563Z,3.10
2022-12-26T22:52:54.408Z,2.42
2022-12-26T22:55:21.437Z,2.33
2022-12-26T22:57:52.421Z,2.05
2022-12-26T23:00:19.925Z,1.70
2022-12-26T23:02:46.777Z,1.65
2022-12-26T23:05:14.209Z,1.95
2022-12-26T23:07:41.317Z,1.60
2022-12-26T23:10:08.748Z,1.70
2022-12-26T23:12:44.802Z,1.20
2022-12-26T23:15:22.627Z,1.60
2022-12-26T23:18:22.226Z,1.60
2022-12-26T23:21:07.645Z,1.27
2022-12-26T23:23:34.655Z,1.15
2022-12-26T23:26:01.471Z,1.65
2022-12-26T23:28:47.079Z,1.38
2022-12-26T23:31:14.097Z,1.20
2022-12-26T23:33:40.915Z,1.15
2022-12-26T23:36:08.343Z,1.77
2022-12-26T23:38:35.189Z,1.23
2022-12-26T23:41:01.982Z,1.42
2022-12-26T23:47:43.247Z,1.08
2022-12-26T23:50:11.396Z,0.98
2022-12-26T23:52:38.313Z,1.50
2022-12-26T23:55:05.687Z,1.42
2022-12-26T23:57:32.531Z,0.95
2022-12-26T23:59:59.298Z,1.23
